Time;durP1;ratioP1;P1;durP2;ratioP2;P2;SDS_P1;SDS_P2;PMS_P1;PMS_P2;Temp;Humidity;BMP_temperature;BMP_pressure;BME280_temperature;BME280_humidity;BME280_pressure;Samples;Min_cycle;Max_cycle;Signal;HPM_P1;HPM_P2
2022/08/02 00:02:18;;;;;;;3.42;1.23;;;;;;;21.56;95.16;100232.66;4880951;29;20028;-81
2022/08/02 00:04:43;;;;;;;3.35;1.40;;;;;;;21.57;95.01;100231.69;4881012;29;20473;-81
2022/08/02 00:07:09;;;;;;;2.67;1.27;;;;;;;21.60;94.71;100234.16;4880576;29;20096;-82
2022/08/02 00:09:34;;;;;;;3.22;1.38;;;;;;;21.60;94.59;100229.63;4883431;29;20580;-81
2022/08/02 00:11:59;;;;;;;2.47;1.45;;;;;;;21.54;94.88;100212.97;4897917;29;20036;-80
2022/08/02 00:14:25;;;;;;;1.83;0.98;;;;;;;21.53;95.70;100230.19;4881143;29;20032;-82
2022/08/02 00:16:50;;;;;;;4.05;1.52;;;;;;;21.45;95.40;100224.50;4881468;29;20051;-81
2022/08/02 00:19:16;;;;;;;3.15;1.40;;;;;;;21.41;95.62;100222.97;4880928;29;20055;-81
2022/08/02 00:21:42;;;;;;;2.92;1.48;;;;;;;21.49;96.20;100242.22;4897198;29;20100;-81
2022/08/02 00:24:07;;;;;;;4.13;1.50;;;;;;;21.36;96.61;100235.97;4897766;29;20107;-82
2022/08/02 00:26:33;;;;;;;3.55;1.50;;;;;;;21.36;96.39;100241.38;4896999;29;20494;-81
2022/08/02 00:28:58;;;;;;;6.05;1.60;;;;;;;21.19;97.58;100222.78;4897950;29;20029;-81
2022/08/02 00:31:24;;;;;;;4.20;1.25;;;;;;;21.16;97.95;100233.84;4897270;29;20033;-82
2022/08/02 00:33:49;;;;;;;4.75;1.38;;;;;;;21.13;98.58;100244.91;4881428;29;20041;-82
2022/08/02 00:36:15;;;;;;;2.83;1.45;;;;;;;21.15;99.33;100256.47;4881484;29;20107;-82
2022/08/02 00:38:41;;;;;;;3.53;1.58;;;;;;;21.07;99.78;100245.34;4881376;29;20386;-81
2022/08/02 00:41:18;;;;;;;3.30;1.50;;;;;;;21.14;100.00;100268.25;4880130;29;20111;-82
2022/08/02 00:43:45;;;;;;;2.85;1.40;;;;;;;21.06;100.00;100263.41;4881963;29;20131;-81
2022/08/02 00:46:12;;;;;;;3.72;1.88;;;;;;;21.03;100.00;100260.06;4881249;29;20032;-81
2022/08/02 00:48:37;;;;;;;3.95;1.45;;;;;;;21.08;100.00;100263.28;4898757;29;20341;-81
2022/08/02 00:51:03;;;;;;;2.72;1.23;;;;;;;21.05;100.00;100260.81;4897438;29;20028;-81
2022/08/02 00:53:29;;;;;;;3.55;1.58;;;;;;;21.11;100.00;100276.59;4897633;29;20104;-82
2022/08/02 00:55:55;;;;;;;2.72;1.40;;;;;;;21.10;100.00;100277.59;4881128;29;20385;-81
2022/08/02 00:58:20;;;;;;;3.45;1.40;;;;;;;21.04;100.00;100261.81;4880924;29;20040;-81
2022/08/02 01:00:46;;;;;;;3.67;1.65;;;;;;;21.07;100.00;100273.25;4897155;29;20024;-80
2022/08/02 01:03:11;;;;;;;5.03;1.70;;;;;;;21.12;100.00;100286.47;4898048;29;20161;-81
2022/08/02 01:05:37;;;;;;;4.05;1.35;;;;;;;21.04;100.00;100267.22;4897501;29;20036;-80
2022/08/02 01:08:03;;;;;;;2.88;1.38;;;;;;;21.06;100.00;100258.00;4899023;29;20057;-81
2022/08/02 01:10:28;;;;;;;3.67;1.70;;;;;;;21.20;100.00;100279.53;4889501;29;20510;-80
2022/08/02 01:12:54;;;;;;;2.45;1.40;;;;;;;21.14;100.00;100265.56;4878986;29;20028;-81
2022/08/02 01:15:20;;;;;;;3.15;1.60;;;;;;;21.21;100.00;100283.09;4880678;29;20044;-81
2022/08/02 01:18:00;;;;;;;2.97;1.30;;;;;;;21.19;100.00;100271.50;4877556;29;20031;-82
2022/08/02 01:21:02;;;;;;;2.40;1.20;;;;;;;21.15;100.00;100279.00;4878611;29;20056;-81
2022/08/02 01:24:01;;;;;;;2.97;1.40;;;;;;;21.13;100.00;100277.34;4878511;29;20054;-80
2022/08/02 01:26:41;;;;;;;5.28;2.00;;;;;;;21.15;100.00;100273.59;4878974;29;20029;-80
2022/08/02 01:29:30;;;;;;;7.50;1.75;;;;;;;21.08;100.00;100264.16;4878924;29;20028;-81
2022/08/02 01:32:05;;;;;;;3.58;1.55;;;;;;;21.10;100.00;100266.75;4878248;29;20029;-81
2022/08/02 01:34:48;;;;;;;4.05;1.70;;;;;;;21.14;100.00;100281.78;4874317;29;20469;-80
2022/08/02 01:37:43;;;;;;;3.13;1.50;;;;;;;21.13;100.00;100282.78;4874356;29;20033;-80
2022/08/02 01:40:28;;;;;;;3.30;1.40;;;;;;;20.91;100.00;100246.41;4876808;29;20033;-81
2022/08/02 01:42:56;;;;;;;2.22;1.52;;;;;;;21.01;100.00;100262.00;4879526;29;20033;-81
2022/08/02 01:45:25;;;;;;;3.25;1.40;;;;;;;20.95;100.00;100252.47;4862086;29;20032;-81
2022/08/02 01:47:52;;;;;;;2.58;1.42;;;;;;;20.86;100.00;100245.88;4879814;29;20516;-81
2022/08/02 01:50:32;;;;;;;3.33;1.58;;;;;;;20.97;100.00;100271.28;4878282;29;20417;-81
2022/08/02 01:53:01;;;;;;;2.97;1.58;;;;;;;20.88;100.00;100265.56;4861858;29;20029;-81
2022/08/02 01:55:30;;;;;;;4.30;1.73;;;;;;;20.83;100.00;100261.44;4878825;29;20484;-81
2022/08/02 01:57:59;;;;;;;2.70;1.40;;;;;;;20.72;100.00;100254.06;4862408;29;20028;-81
2022/08/02 02:00:28;;;;;;;4.47;1.55;;;;;;;20.72;100.00;100251.38;4860488;29;20036;-81
2022/08/02 02:02:56;;;;;;;2.63;1.52;;;;;;;20.74;100.00;100246.72;4879276;29;20033;-81
2022/08/02 02:05:24;;;;;;;3.90;1.73;;;;;;;20.81;100.00;100266.09;4879259;29;20060;-81
2022/08/02 02:07:54;;;;;;;4.38;1.70;;;;;;;20.68;100.00;100238.19;4883180;29;20057;-81
2022/08/02 02:10:26;;;;;;;4.05;1.50;;;;;;;20.68;100.00;100243.59;4878287;29;20043;-81
2022/08/02 02:12:53;;;;;;;3.90;1.88;;;;;;;20.74;100.00;100262.94;4895704;29;20116;-81
2022/08/02 02:15:22;;;;;;;4.40;1.50;;;;;;;20.56;100.00;100241.75;4897140;29;20087;-80
2022/08/02 02:17:51;;;;;;;2.50;1.50;;;;;;;20.51;100.00;100242.06;4897047;29;20028;-82
2022/08/02 02:20:18;;;;;;;3.10;1.55;;;;;;;20.48;100.00;100242.28;4878999;29;20043;-82
2022/08/02 02:22:44;;;;;;;4.10;1.77;;;;;;;20.55;100.00;100259.81;4896421;29;20102;-82
2022/08/02 02:25:11;;;;;;;2.53;1.35;;;;;;;20.46;100.00;100238.81;4897478;29;20528;-81
2022/08/02 02:27:42;;;;;;;2.75;1.23;;;;;;;20.51;100.00;100260.97;4897621;29;20025;-80
2022/08/02 02:30:08;;;;;;;2.63;1.55;;;;;;;20.34;100.00;100239.69;4896671;29;20377;-81
2022/08/02 02:32:35;;;;;;;3.83;1.23;;;;;;;20.29;100.00;100241.84;4896275;29;20072;-82
2022/08/02 02:35:02;;;;;;;2.80;1.50;;;;;;;20.15;100.00;100233.78;4879695;29;20040;-82
2022/08/02 02:37:29;;;;;;;10.65;1.98;;;;;;;20.10;100.00;100240.47;4879735;29;20036;-81
2022/08/02 02:39:56;;;;;;;2.60;1.60;;;;;;;19.92;100.00;100239.00;4892395;29;20045;-81
2022/08/02 02:42:27;;;;;;;2.55;1.33;;;;;;;19.93;100.00;100254.22;4859150;29;20043;-81
2022/08/02 02:44:55;;;;;;;6.43;1.80;;;;;;;19.83;100.00;100256.69;4877918;29;20032;-82
2022/08/02 02:47:22;;;;;;;2.53;1.35;;;;;;;19.83;100.00;100261.22;4897339;29;20115;-81
2022/08/02 02:49:49;;;;;;;3.42;1.52;;;;;;;19.69;100.00;100251.31;4897650;29;20033;-81
2022/08/02 02:52:17;;;;;;;2.92;1.50;;;;;;;19.66;100.00;100251.53;4881205;29;20072;-80
2022/08/02 02:54:47;;;;;;;2.78;1.23;;;;;;;19.66;100.00;100243.44;4899529;29;20025;-81
2022/08/02 02:57:14;;;;;;;3.03;1.58;;;;;;;19.69;100.00;100251.31;4882153;29;20035;-81
2022/08/02 02:59:40;;;;;;;3.97;1.67;;;;;;;19.74;100.00;100253.69;4881419;29;20036;-81
2022/08/02 03:02:06;;;;;;;7.82;1.70;;;;;;;19.71;100.00;100246.69;4898746;29;20060;-81
2022/08/02 03:04:32;;;;;;;3.75;1.75;;;;;;;19.77;100.00;100253.53;4882258;29;20080;-81
2022/08/02 03:06:59;;;;;;;4.05;1.60;;;;;;;19.73;100.00;100257.38;4899250;29;20025;-81
2022/08/02 03:09:25;;;;;;;3.00;1.45;;;;;;;19.73;100.00;100252.88;4899780;29;20054;-81
2022/08/02 03:11:53;;;;;;;7.38;1.42;;;;;;;19.55;100.00;100210.91;4883246;29;20033;-81
2022/08/02 03:14:20;;;;;;;2.83;1.30;;;;;;;19.76;100.00;100252.66;4897976;29;20036;-81
2022/08/02 03:16:48;;;;;;;2.92;1.45;;;;;;;19.78;100.00;100247.16;4900151;29;20065;-81
2022/08/02 03:19:14;;;;;;;4.30;1.10;;;;;;;19.57;100.00;100225.16;4897974;29;20029;-81
2022/08/02 03:21:41;;;;;;;3.97;1.60;;;;;;;19.63;100.00;100246.34;4883804;29;20088;-81
2022/08/02 03:24:07;;;;;;;2.78;1.33;;;;;;;19.56;100.00;100240.47;4881873;29;20357;-81
2022/08/02 03:26:33;;;;;;;3.80;1.10;;;;;;;19.49;100.00;100231.03;4899234;29;20037;-81
2022/08/02 03:28:59;;;;;;;3.38;1.10;;;;;;;19.53;100.00;100250.59;4880846;29;20028;-81
2022/08/02 03:31:25;;;;;;;2.28;1.33;;;;;;;19.39;100.00;100239.81;4882329;29;20096;-81
2022/08/02 03:33:52;;;;;;;2.78;1.10;;;;;;;19.43;100.00;100260.25;4900008;29;20036;-81
2022/08/02 03:36:21;;;;;;;3.05;1.35;;;;;;;19.40;100.00;100255.06;4898065;29;20028;-81
2022/08/02 03:38:50;;;;;;;5.50;1.67;;;;;;;19.44;100.00;100252.06;4898941;29;20020;-81
2022/08/02 03:41:17;;;;;;;3.85;1.50;;;;;;;19.41;100.00;100243.31;4881412;29;20115;-81
2022/08/02 03:43:45;;;;;;;3.78;1.73;;;;;;;19.50;100.00;100269.69;4882079;29;20024;-80
2022/08/02 03:46:13;;;;;;;4.85;1.40;;;;;;;19.51;100.00;100249.84;4882148;29;20025;-81
2022/08/02 03:48:40;;;;;;;3.22;1.50;;;;;;;19.54;100.00;100250.50;4898791;29;20498;-80
2022/08/02 03:51:07;;;;;;;4.15;1.52;;;;;;;19.53;100.00;100247.91;4898884;29;20115;-81
2022/08/02 03:53:33;;;;;;;3.33;1.55;;;;;;;19.67;100.00;100258.66;4896385;29;20028;-80
2022/08/02 03:55:59;;;;;;;5.10;1.75;;;;;;;19.63;100.00;100262.53;4896124;29;20357;-80
2022/08/02 03:58:24;;;;;;;2.65;1.25;;;;;;;19.55;100.00;100237.88;4880659;29;20734;-80
2022/08/02 04:00:56;;;;;;;3.25;1.70;;;;;;;19.39;100.00;100235.31;4898788;29;20043;-81
2022/08/02 04:03:22;;;;;;;4.60;1.48;;;;;;;19.64;100.00;100258.84;4881384;29;20043;-80
2022/08/02 04:05:48;;;;;;;2.90;1.35;;;;;;;19.52;100.00;100254.28;4881563;29;20032;-81
2022/08/02 04:08:13;;;;;;;3.75;1.40;;;;;;;19.46;100.00;100227.69;4897564;29;20440;-81
2022/08/02 04:13:27;;;;;;;4.68;1.73;;;;;;;19.53;100.00;100258.69;4898516;29;20039;-81
2022/08/02 04:15:56;;;;;;;4.68;1.45;;;;;;;19.56;100.00;100277.38;4882019;29;20032;-82
2022/08/02 04:18:28;;;;;;;3.72;1.35;;;;;;;19.45;100.00;100264.59;4897903;29;20131;-81
2022/08/02 04:20:55;;;;;;;2.13;1.23;;;;;;;19.50;100.00;100270.53;4898097;29;20536;-81
2022/08/02 04:23:23;;;;;;;4.35;1.55;;;;;;;19.41;100.00;100262.19;4897788;29;20048;-81
2022/08/02 04:25:49;;;;;;;7.47;1.65;;;;;;;19.44;100.00;100268.25;4880668;29;20034;-81
2022/08/02 04:28:15;;;;;;;6.65;1.50;;;;;;;19.33;100.00;100253.72;4896051;29;20035;-81
2022/08/02 04:30:41;;;;;;;2.88;1.70;;;;;;;19.39;100.00;100264.09;4896163;29;20040;-81
2022/08/02 04:33:07;;;;;;;4.20;1.52;;;;;;;19.30;100.00;100248.53;4880191;29;20136;-80
2022/08/02 04:35:32;;;;;;;7.32;2.05;;;;;;;19.42;100.00;100259.38;4896588;29;20032;-81
2022/08/02 04:37:58;;;;;;;5.28;2.00;;;;;;;19.52;100.00;100265.06;4881617;29;20128;-80
2022/08/02 04:40:23;;;;;;;4.05;1.92;;;;;;;19.60;100.00;100260.88;4882025;29;20020;-81
2022/08/02 04:42:49;;;;;;;9.82;2.03;;;;;;;19.62;100.00;100263.47;4898876;29;20119;-81
2022/08/02 04:45:15;;;;;;;3.72;1.45;;;;;;;19.66;100.00;100267.72;4896623;29;20510;-81
2022/08/02 04:47:40;;;;;;;3.72;1.45;;;;;;;19.81;100.00;100265.84;4898049;29;20092;-81
2022/08/02 04:50:06;;;;;;;2.22;1.30;;;;;;;19.75;100.00;100250.94;4899039;29;20021;-81
2022/08/02 04:52:32;;;;;;;3.45;1.73;;;;;;;19.78;100.00;100266.94;4880535;29;20025;-81
2022/08/02 04:54:57;;;;;;;6.20;1.90;;;;;;;19.78;100.00;100269.63;4880456;29;20123;-81
2022/08/02 05:00:08;;;;;;;3.10;1.60;;;;;;;19.84;100.00;100253.00;4897158;29;20444;-81
2022/08/02 05:02:34;;;;;;;3.10;1.60;;;;;;;19.92;100.00;100253.34;4879316;29;20390;-80
2022/08/02 05:05:00;;;;;;;4.03;1.63;;;;;;;20.11;100.00;100274.59;4880763;29;20029;-80
2022/08/02 05:07:26;;;;;;;3.83;1.70;;;;;;;20.17;100.00;100268.81;4896053;29;20056;-80
2022/08/02 05:09:51;;;;;;;4.15;1.65;;;;;;;20.20;100.00;100258.66;4897390;29;20056;-81
2022/08/02 05:12:18;;;;;;;4.18;1.70;;;;;;;20.38;100.00;100284.41;4880542;29;20032;-81
2022/08/02 05:14:43;;;;;;;4.35;2.38;;;;;;;20.34;100.00;100277.50;4881639;29;20082;-81
2022/08/02 05:17:09;;;;;;;3.92;1.55;;;;;;;20.30;100.00;100267.88;4881634;29;20122;-81
2022/08/02 05:19:34;;;;;;;3.08;1.50;;;;;;;20.39;100.00;100261.84;4898160;29;20079;-81
2022/08/02 05:21:59;;;;;;;9.23;2.08;;;;;;;20.48;100.00;100246.81;4881181;29;20068;-81
2022/08/02 05:24:25;;;;;;;3.33;1.70;;;;;;;20.69;100.00;100270.50;4898518;29;20825;-81
2022/08/02 05:26:50;;;;;;;4.43;1.90;;;;;;;20.71;100.00;100255.06;4897126;29;20028;-81
2022/08/02 05:29:16;;;;;;;3.10;1.42;;;;;;;20.99;100.00;100275.63;4898255;29;20032;-81
2022/08/02 05:31:42;;;;;;;3.75;1.50;;;;;;;21.07;100.00;100267.84;4880847;29;20029;-81
2022/08/02 05:34:07;;;;;;;3.42;1.63;;;;;;;21.18;99.70;100269.78;4881282;29;20127;-80
2022/08/02 05:36:33;;;;;;;4.30;1.73;;;;;;;21.40;98.69;100273.53;4895962;29;20054;-81
2022/08/02 05:38:58;;;;;;;3.17;1.77;;;;;;;21.53;96.95;100259.97;4879613;29;20028;-80
2022/08/02 05:41:24;;;;;;;4.93;2.05;;;;;;;21.68;95.53;100266.97;4896986;29;20020;-81
2022/08/02 05:43:49;;;;;;;3.13;1.70;;;;;;;21.71;94.56;100253.19;4880151;29;20016;-81
2022/08/02 05:46:15;;;;;;;4.43;1.95;;;;;;;21.80;93.90;100276.91;4897765;29;20021;-81
2022/08/02 05:48:40;;;;;;;5.28;1.70;;;;;;;21.75;94.21;100281.75;4897474;29;20039;-81
2022/08/02 05:51:11;;;;;;;4.32;1.83;;;;;;;21.69;94.09;100276.81;4896898;29;20088;-81
2022/08/02 05:53:54;;;;;;;3.90;1.65;;;;;;;21.73;94.56;100286.44;4881118;29;20029;-81
2022/08/02 05:56:29;;;;;;;7.07;1.85;;;;;;;21.65;94.31;100269.88;4880318;29;20025;-81
2022/08/02 05:59:03;;;;;;;4.57;1.80;;;;;;;21.88;93.50;100288.03;4880026;29;20127;-81
2022/08/02 06:01:37;;;;;;;5.22;2.22;;;;;;;21.96;92.90;100296.44;4896631;29;20033;-81
2022/08/02 06:04:08;;;;;;;11.40;5.65;;;;;;;21.92;91.77;100281.41;4898534;29;20025;-81
2022/08/02 06:06:35;;;;;;;19.65;4.88;;;;;;;22.08;91.62;100292.81;4897924;29;20091;-81
2022/08/02 06:09:07;;;;;;;13.15;3.25;;;;;;;22.09;91.77;100281.03;4876692;29;20133;-80
2022/08/02 06:11:39;;;;;;;4.63;1.88;;;;;;;22.42;89.36;100307.41;4897802;29;20033;-81
2022/08/02 06:14:06;;;;;;;4.50;1.60;;;;;;;22.50;88.40;100294.97;4895990;29;20131;-80
2022/08/02 06:16:32;;;;;;;5.90;2.10;;;;;;;22.67;87.26;100294.56;4878306;29;20032;-81
2022/08/02 06:18:59;;;;;;;3.53;1.70;;;;;;;22.86;87.34;100303.00;4891466;29;20071;-81
2022/08/02 06:21:25;;;;;;;4.40;2.25;;;;;;;22.91;87.30;100311.66;4880133;29;20029;-81
2022/08/02 06:23:51;;;;;;;5.70;2.08;;;;;;;22.95;87.69;100310.41;4881149;29;20025;-81
2022/08/02 06:26:17;;;;;;;4.82;2.03;;;;;;;23.11;87.28;100310.91;4880243;29;20043;-81
2022/08/02 06:28:44;;;;;;;4.28;1.63;;;;;;;23.23;86.94;100314.50;4881127;29;20131;-81
2022/08/02 06:31:12;;;;;;;5.35;2.03;;;;;;;23.22;86.17;100300.09;4879016;29;20560;-81
2022/08/02 06:33:38;;;;;;;3.25;1.27;;;;;;;23.37;85.04;100296.19;4892581;29;20033;-81
2022/08/02 06:36:31;;;;;;;3.05;1.48;;;;;;;23.55;85.23;100314.66;4898813;29;20028;-81
2022/08/02 06:39:03;;;;;;;;;;;;;;;23.63;84.01;100312.19;4869070;29;20094;-81
2022/08/02 06:41:37;;;;;;;5.10;1.70;;;;;;;23.56;83.17;100279.22;4896190;29;19963;-81
2022/08/02 06:44:03;;;;;;;5.18;1.80;;;;;;;23.90;83.62;100309.94;4899052;29;20072;-81
2022/08/02 06:46:29;;;;;;;2.67;1.45;;;;;;;23.97;83.42;100300.28;4882573;29;20059;-81
2022/08/02 06:48:55;;;;;;;3.05;1.50;;;;;;;24.26;80.71;100307.75;4898446;29;20060;-81
2022/08/02 06:51:21;;;;;;;3.63;1.60;;;;;;;24.44;79.30;100310.78;4898273;29;20047;-81
2022/08/02 06:53:47;;;;;;;4.10;1.67;;;;;;;24.50;78.07;100305.66;4899199;29;20049;-81
2022/08/02 06:56:13;;;;;;;4.03;1.85;;;;;;;24.67;78.02;100306.94;4882321;29;20223;-81
2022/08/02 06:58:39;;;;;;;2.80;1.85;;;;;;;24.84;75.58;100302.81;4899499;29;20115;-80
2022/08/02 07:01:06;;;;;;;4.85;1.70;;;;;;;24.98;74.51;100295.16;4899265;29;20025;-80
2022/08/02 07:03:36;;;;;;;3.67;1.55;;;;;;;25.28;71.78;100313.38;4898969;29;20056;-80
2022/08/02 07:06:03;;;;;;;3.03;1.30;;;;;;;25.49;71.67;100317.81;4882422;29;20028;-81
2022/08/02 07:08:32;;;;;;;3.35;1.55;;;;;;;25.68;69.67;100309.72;4898969;29;20520;-81
2022/08/02 07:11:01;;;;;;;3.40;1.52;;;;;;;25.87;68.41;100315.22;4888300;29;20487;-81
2022/08/02 07:13:28;;;;;;;3.65;1.30;;;;;;;25.94;67.84;100291.88;4899198;29;20083;-81
2022/08/02 07:15:54;;;;;;;4.53;1.38;;;;;;;26.22;68.58;100300.25;4884893;29;20024;-81
2022/08/02 07:18:21;;;;;;;3.97;1.45;;;;;;;26.37;66.22;100287.91;4898653;29;20028;-81
2022/08/02 07:20:46;;;;;;;3.05;1.40;;;;;;;26.76;66.92;100314.22;4899102;29;20084;-81
2022/08/02 07:23:12;;;;;;;2.45;1.10;;;;;;;27.21;65.69;100296.16;4882427;29;20048;-81
2022/08/02 07:25:38;;;;;;;2.47;1.20;;;;;;;27.39;64.02;100313.53;4880655;29;20028;-81
2022/08/02 07:28:04;;;;;;;2.53;1.10;;;;;;;27.44;63.26;100302.16;4897778;29;20488;-81
2022/08/02 07:30:31;;;;;;;3.67;1.55;;;;;;;27.56;62.79;100318.19;4897131;29;20032;-81
2022/08/02 07:32:58;;;;;;;3.78;1.15;;;;;;;27.77;62.17;100299.69;4897879;29;20035;-81
2022/08/02 07:35:24;;;;;;;2.13;1.10;;;;;;;27.85;60.68;100308.00;4898842;29;20036;-81
2022/08/02 07:37:49;;;;;;;3.35;1.38;;;;;;;27.61;60.18;100304.94;4893432;29;20040;-81
2022/08/02 07:40:15;;;;;;;2.80;1.50;;;;;;;27.50;60.68;100307.00;4893912;29;20028;-81
2022/08/02 07:42:44;;;;;;;2.30;1.27;;;;;;;27.59;60.63;100323.38;4898869;29;20115;-81
2022/08/02 07:45:11;;;;;;;4.55;1.30;;;;;;;27.90;59.32;100313.91;4898141;29;20032;-81
2022/08/02 07:47:38;;;;;;;1.92;1.00;;;;;;;27.85;57.94;100296.19;4881618;29;20031;-81
2022/08/02 07:50:06;;;;;;;3.67;1.15;;;;;;;28.35;58.52;100308.44;4881309;29;20025;-81
2022/08/02 07:52:31;;;;;;;6.22;1.08;;;;;;;28.35;56.99;100294.75;4898396;29;20558;-81
2022/08/02 07:54:57;;;;;;;2.92;1.48;;;;;;;28.41;57.00;100289.50;4898325;29;20031;-81
2022/08/02 07:57:22;;;;;;;4.93;2.03;;;;;;;29.01;56.82;100292.44;4897889;29;20093;-81
2022/08/02 07:59:49;;;;;;;2.38;1.10;;;;;;;29.64;53.98;100291.97;4896368;29;20641;-81
2022/08/02 08:02:14;;;;;;;3.40;1.27;;;;;;;30.07;54.13;100282.72;4879260;29;20025;-81
2022/08/02 08:04:40;;;;;;;7.32;1.25;;;;;;;30.08;52.15;100292.69;4876315;29;20031;-81
2022/08/02 08:07:08;;;;;;;4.10;1.00;;;;;;;29.98;52.10;100291.97;4877040;29;20033;-81
2022/08/02 08:09:40;;;;;;;2.65;1.35;;;;;;;30.09;52.06;100290.78;4896974;29;20112;-81
2022/08/02 08:12:09;;;;;;;4.28;1.10;;;;;;;30.68;51.74;100298.78;4880391;29;20040;-81
2022/08/02 08:14:35;;;;;;;3.03;1.00;;;;;;;31.21;49.18;100292.78;4880097;29;20032;-81
2022/08/02 08:17:00;;;;;;;6.35;1.30;;;;;;;31.27;48.11;100290.19;4897185;29;20040;-81
2022/08/02 08:19:26;;;;;;;1.73;0.85;;;;;;;31.09;47.91;100296.94;4897960;29;20036;-80
2022/08/02 08:21:51;;;;;;;6.10;2.33;;;;;;;31.10;49.02;100293.16;4881338;29;20085;-82
2022/08/02 08:24:17;;;;;;;3.00;1.23;;;;;;;31.46;47.58;100294.47;4880919;29;20488;-82
2022/08/02 08:26:42;;;;;;;3.50;1.00;;;;;;;31.44;46.54;100286.41;4880520;29;20036;-81
2022/08/02 08:29:08;;;;;;;5.50;1.20;;;;;;;31.71;47.63;100293.34;4896571;29;20067;-81
2022/08/02 08:31:33;;;;;;;3.03;1.00;;;;;;;31.82;46.66;100295.72;4897016;29;20036;-82
2022/08/02 08:33:59;;;;;;;3.13;0.98;;;;;;;31.73;46.87;100296.78;4897173;29;20060;-81
2022/08/02 08:36:25;;;;;;;2.90;1.17;;;;;;;31.88;46.13;100278.50;4897547;29;20338;-81
2022/08/02 08:38:51;;;;;;;2.97;1.20;;;;;;;31.44;47.68;100271.78;4897854;29;20079;-81
2022/08/02 08:41:17;;;;;;;2.67;1.23;;;;;;;31.74;47.74;100277.34;4881405;29;20040;-81
2022/08/02 08:43:43;;;;;;;2.47;1.48;;;;;;;32.22;45.31;100292.78;4895883;29;20540;-82
2022/08/02 08:46:15;;;;;;;2.78;1.38;;;;;;;32.51;45.72;100292.09;4895921;29;20024;-81
2022/08/02 08:48:47;;;;;;;3.67;1.33;;;;;;;32.64;44.28;100287.69;4896886;29;20036;-81
2022/08/02 08:51:18;;;;;;;2.08;1.05;;;;;;;32.55;44.19;100286.06;4896548;29;20108;-81
2022/08/02 08:53:46;;;;;;;3.45;1.27;;;;;;;32.35;43.52;100292.19;4880076;29;20132;-82
2022/08/02 08:56:14;;;;;;;4.22;1.20;;;;;;;32.33;44.49;100288.75;4871259;29;20041;-81
2022/08/02 08:58:39;;;;;;;3.35;1.35;;;;;;;32.37;46.57;100282.72;4861637;29;20035;-81
2022/08/02 09:01:05;;;;;;;5.07;1.40;;;;;;;32.68;45.08;100278.03;4877690;29;20033;-81
2022/08/02 09:03:31;;;;;;;2.53;1.33;;;;;;;33.14;42.93;100289.84;4878911;29;20036;-81
2022/08/02 09:05:57;;;;;;;2.30;1.33;;;;;;;33.12;43.75;100270.75;4878956;29;20036;-81
2022/08/02 09:08:24;;;;;;;3.28;1.63;;;;;;;32.70;43.01;100269.56;4879416;29;20581;-81
2022/08/02 09:10:50;;;;;;;4.90;1.90;;;;;;;32.79;44.35;100272.06;4889337;29;20031;-80
2022/08/02 09:13:23;;;;;;;2.97;1.60;;;;;;;33.27;42.63;100279.03;4879626;29;20029;-81
2022/08/02 09:15:54;;;;;;;2.55;1.10;;;;;;;33.15;41.48;100281.38;4898857;29;20092;-81
2022/08/02 09:18:20;;;;;;;3.75;2.10;;;;;;;32.58;42.63;100266.38;4899682;29;20032;-82
2022/08/02 09:20:59;;;;;;;3.42;1.67;;;;;;;32.55;43.95;100283.28;4895090;29;20029;-81
2022/08/02 09:23:32;;;;;;;6.15;2.08;;;;;;;33.06;42.82;100279.78;4896035;29;20059;-82
2022/08/02 09:26:01;;;;;;;4.05;1.70;;;;;;;33.41;41.20;100280.09;4895940;29;20021;-82
2022/08/02 09:28:35;;;;;;;1.98;1.35;;;;;;;33.33;41.98;100284.66;4879590;29;20056;-81
2022/08/02 09:31:07;;;;;;;4.82;1.48;;;;;;;33.81;42.17;100285.13;4895690;29;20032;-82
2022/08/02 09:33:33;;;;;;;4.47;2.10;;;;;;;33.68;40.44;100274.78;4879954;29;20120;-82
2022/08/02 09:36:00;;;;;;;5.88;1.85;;;;;;;33.36;40.98;100272.38;4879733;29;20063;-81
2022/08/02 09:38:27;;;;;;;3.78;2.15;;;;;;;33.73;40.72;100275.06;4883021;29;20120;-82
2022/08/02 09:40:52;;;;;;;5.38;1.65;;;;;;;34.12;39.09;100266.47;4879916;29;20032;-82
2022/08/02 09:43:19;;;;;;;3.17;1.85;;;;;;;34.09;39.89;100275.97;4896092;29;20387;-82
2022/08/02 09:45:45;;;;;;;2.78;1.50;;;;;;;34.16;39.44;100259.47;4878848;29;20052;-81
2022/08/02 09:48:10;;;;;;;4.68;2.08;;;;;;;34.54;40.30;100270.16;4878872;29;20417;-81
2022/08/02 09:50:41;;;;;;;5.93;1.90;;;;;;;34.71;37.76;100273.50;4877824;29;20033;-81
2022/08/02 09:53:12;;;;;;;5.63;2.00;;;;;;;34.90;37.90;100270.09;4877590;29;20024;-81
2022/08/02 09:55:39;;;;;;;3.05;1.42;;;;;;;35.37;39.25;100278.50;4897791;29;20096;-81
2022/08/02 09:58:19;;;;;;;2.90;1.60;;;;;;;35.45;36.43;100259.00;4899219;29;20548;-82
2022/08/02 10:00:53;;;;;;;2.85;1.50;;;;;;;35.78;37.49;100271.13;4899014;29;20028;-81
2022/08/02 10:03:19;;;;;;;2.78;1.65;;;;;;;35.98;35.83;100260.19;4882997;29;20473;-82
2022/08/02 10:05:53;;;;;;;4.05;1.75;;;;;;;36.02;36.34;100260.59;4900002;29;20043;-81
2022/08/02 10:08:19;;;;;;;2.97;1.77;;;;;;;35.21;36.61;100256.69;4882681;29;20061;-81
2022/08/02 10:10:45;;;;;;;4.47;1.73;;;;;;;35.30;37.70;100266.56;4899872;29;20053;-81
2022/08/02 10:13:11;;;;;;;3.63;1.70;;;;;;;35.67;38.05;100252.34;4900015;29;20064;-81
2022/08/02 10:15:37;;;;;;;2.55;1.52;;;;;;;35.92;36.85;100249.06;4882655;29;20036;-81
2022/08/02 10:18:07;;;;;;;10.82;2.42;;;;;;;35.88;35.44;100250.53;4882489;29;20032;-81
2022/08/02 10:20:42;;;;;;;2.55;1.67;;;;;;;36.08;36.48;100257.03;4899030;29;20048;-82
2022/08/02 10:23:10;;;;;;;4.07;1.63;;;;;;;35.98;34.78;100243.56;4899358;29;20053;-81
2022/08/02 10:25:37;;;;;;;3.05;1.80;;;;;;;36.02;34.96;100252.28;4880934;29;20377;-82
2022/08/02 10:28:07;;;;;;;4.03;2.40;;;;;;;35.98;34.86;100254.66;4898102;29;20033;-81
2022/08/02 10:30:39;;;;;;;4.70;1.80;;;;;;;35.80;35.75;100235.78;4898673;29;20056;-81
2022/08/02 10:33:09;;;;;;;5.60;1.85;;;;;;;35.71;35.88;100258.31;4898286;29;20036;-81
2022/08/02 10:35:37;;;;;;;3.70;1.90;;;;;;;35.61;34.46;100247.63;4898802;29;20032;-82
2022/08/02 10:38:06;;;;;;;3.75;1.90;;;;;;;35.81;34.67;100250.50;4898545;29;20025;-81
2022/08/02 10:40:49;;;;;;;3.45;1.90;;;;;;;35.89;35.10;100247.56;4898186;29;20033;-81
2022/08/02 10:43:30;;;;;;;3.47;1.63;;;;;;;36.18;35.49;100243.63;4898140;29;20025;-82
2022/08/02 10:46:21;;;;;;;3.75;1.83;;;;;;;36.05;34.93;100238.06;4897913;29;20051;-81
2022/08/02 10:49:21;;;;;;;3.45;1.75;;;;;;;36.06;35.24;100214.81;4882883;29;20362;-81
2022/08/02 10:52:00;;;;;;;3.95;2.20;;;;;;;35.78;34.17;100220.44;4880237;29;20021;-81
2022/08/02 10:54:28;;;;;;;5.43;2.58;;;;;;;35.44;34.86;100199.19;4864384;29;20033;-81
2022/08/02 10:56:55;;;;;;;4.93;2.15;;;;;;;36.02;35.42;100227.34;4897863;29;20036;-81
2022/08/02 10:59:27;;;;;;;2.90;1.98;;;;;;;36.22;34.84;100225.50;4897797;29;20056;-81
2022/08/02 11:02:00;;;;;;;3.88;1.95;;;;;;;36.48;35.36;100207.03;4898919;29;20035;-81
2022/08/02 11:04:38;;;;;;;4.40;2.22;;;;;;;37.13;34.62;100217.28;4878274;29;20113;-81
2022/08/02 11:07:18;;;;;;;3.17;1.70;;;;;;;37.20;33.53;100218.13;4896045;29;20039;-82
2022/08/02 11:09:45;;;;;;;2.55;1.58;;;;;;;36.48;35.40;100214.50;4897518;29;20025;-82
2022/08/02 11:12:16;;;;;;;3.85;2.20;;;;;;;36.23;35.43;100219.75;4897242;29;20033;-81
2022/08/02 11:15:03;;;;;;;2.83;1.77;;;;;;;35.74;35.86;100208.94;4898005;29;20032;-82
2022/08/02 11:17:52;;;;;;;3.45;1.88;;;;;;;35.92;35.74;100207.50;4898179;29;20429;-81
2022/08/02 11:20:18;;;;;;;3.33;2.15;;;;;;;35.82;34.57;100198.75;4898074;29;20047;-82
2022/08/02 11:22:45;;;;;;;2.97;1.88;;;;;;;35.44;36.70;100196.44;4881890;29;20033;-81
2022/08/02 11:25:30;;;;;;;3.03;1.75;;;;;;;35.40;36.77;100200.69;4882032;29;20043;-82
2022/08/02 11:28:07;;;;;;;5.13;2.03;;;;;;;35.01;36.91;100192.09;4899009;29;20028;-81
2022/08/02 11:30:32;;;;;;;3.83;2.10;;;;;;;35.23;36.69;100202.03;4880025;29;20024;-81
2022/08/02 11:32:59;;;;;;;4.18;2.25;;;;;;;35.70;36.73;100196.53;4897893;29;20057;-81
2022/08/02 11:35:33;;;;;;;5.25;2.13;;;;;;;36.20;36.06;100191.59;4881705;29;20095;-82